Time;durP1;ratioP1;P1;durP2;ratioP2;P2;SDS_P1;SDS_P2;PMS_P1;PMS_P2;Temp;Humidity;BMP_temperature;BMP_pressure;BME280_temperature;BME280_humidity;BME280_pressure;Samples;Min_cycle;Max_cycle;Signal;HPM_P1;HPM_P2
2021/06/21 00:01:28;;;;;;;8.65;4.18;;;15.10;99.90;;;;;;5089699;28;20514;-66
2021/06/21 00:03:54;;;;;;;8.23;3.78;;;15.10;99.90;;;;;;5088247;28;20789;-66
2021/06/21 00:06:20;;;;;;;9.13;3.65;;;15.10;99.90;;;;;;5086320;28;20092;-66
2021/06/21 00:08:46;;;;;;;9.88;4.70;;;15.10;99.90;;;;;;5088229;28;20149;-66
2021/06/21 00:11:12;;;;;;;9.85;3.90;;;15.10;99.90;;;;;;5085080;28;20040;-66
2021/06/21 00:13:38;;;;;;;10.48;4.25;;;15.10;99.90;;;;;;5083226;28;20048;-66
2021/06/21 00:16:04;;;;;;;9.75;4.20;;;15.20;99.90;;;;;;5081496;28;20080;-66
2021/06/21 00:18:30;;;;;;;7.82;4.72;;;15.10;99.90;;;;;;5085810;28;20143;-66
2021/06/21 00:20:56;;;;;;;10.30;3.95;;;15.20;99.90;;;;;;5085431;28;20151;-66
2021/06/21 00:23:22;;;;;;;8.32;4.50;;;15.10;99.90;;;;;;5088248;28;20028;-66
2021/06/21 00:25:48;;;;;;;6.85;3.53;;;15.20;99.90;;;;;;5089230;28;20040;-66
2021/06/21 00:28:16;;;;;;;9.18;3.83;;;15.20;99.90;;;;;;5089765;28;20051;-66
2021/06/21 00:30:42;;;;;;;8.43;3.95;;;15.10;99.90;;;;;;5092499;28;20031;-66
2021/06/21 00:33:08;;;;;;;7.93;3.50;;;15.10;99.90;;;;;;5085895;28;20036;-66
2021/06/21 00:35:34;;;;;;;8.13;3.70;;;15.20;99.90;;;;;;5087583;28;20051;-66
2021/06/21 00:38:00;;;;;;;11.57;3.28;;;15.10;99.90;;;;;;5088142;28;20033;-66
2021/06/21 00:40:26;;;;;;;6.18;3.35;;;15.20;99.90;;;;;;5089682;28;20031;-66
2021/06/21 00:42:53;;;;;;;10.35;3.42;;;15.10;99.90;;;;;;5086072;28;20410;-66
2021/06/21 00:45:21;;;;;;;6.60;3.05;;;15.10;99.90;;;;;;5090425;28;20150;-66
2021/06/21 00:47:50;;;;;;;8.43;3.75;;;15.10;99.90;;;;;;5092626;28;20378;-66
2021/06/21 00:50:16;;;;;;;8.80;3.30;;;15.10;99.90;;;;;;5085158;28;20104;-66
2021/06/21 00:52:42;;;;;;;7.22;3.22;;;15.10;99.90;;;;;;5089963;28;20127;-66
2021/06/21 00:55:09;;;;;;;7.22;3.30;;;15.10;99.90;;;;;;5089797;28;20032;-66
2021/06/21 00:57:36;;;;;;;8.32;3.95;;;15.10;99.90;;;;;;5089587;28;20040;-66
2021/06/21 01:00:09;;;;;;;6.45;2.97;;;15.10;99.90;;;;;;5085371;28;20039;-66
2021/06/21 01:02:35;;;;;;;8.48;3.22;;;15.10;99.90;;;;;;5086038;28;20039;-66
2021/06/21 01:05:02;;;;;;;10.00;4.43;;;15.00;99.90;;;;;;5088564;28;20539;-66
2021/06/21 01:07:27;;;;;;;10.68;4.72;;;15.00;99.90;;;;;;5085500;28;20704;-66
2021/06/21 01:09:55;;;;;;;6.10;4.13;;;15.00;99.90;;;;;;5097036;28;20122;-66
2021/06/21 01:12:56;;;;;;;8.68;4.75;;;15.00;99.90;;;;;;5089906;28;20036;-66
2021/06/21 01:15:31;;;;;;;11.57;4.88;;;15.00;99.90;;;;;;5018829;28;20478;-66
2021/06/21 01:18:22;;;;;;;7.97;4.80;;;14.90;99.90;;;;;;5086550;28;20036;-66
2021/06/21 01:21:16;;;;;;;8.07;4.13;;;14.90;99.90;;;;;;5088691;28;20052;-66
2021/06/21 01:24:27;;;;;;;9.95;4.18;;;14.80;99.90;;;;;;5090216;28;20040;-66
2021/06/21 01:26:57;;;;;;;12.45;4.55;;;14.80;99.90;;;;;;5082764;28;20095;-66
2021/06/21 01:29:48;;;;;;;10.38;3.72;;;14.90;99.90;;;;;;5090058;28;20153;-66
2021/06/21 01:32:16;;;;;;;9.38;3.75;;;14.80;99.90;;;;;;5086324;28;20782;-66
2021/06/21 01:34:50;;;;;;;8.65;3.88;;;14.80;99.90;;;;;;5085568;28;20070;-66
2021/06/21 01:37:18;;;;;;;8.57;3.53;;;14.80;99.90;;;;;;5086317;28;20028;-66
2021/06/21 01:39:48;;;;;;;9.13;3.92;;;14.90;99.90;;;;;;5087471;28;20055;-66
2021/06/21 01:42:15;;;;;;;5.90;3.42;;;14.90;99.90;;;;;;5089148;28;20116;-66
2021/06/21 01:44:55;;;;;;;9.32;3.33;;;14.90;99.90;;;;;;5089376;28;20602;-66
2021/06/21 01:47:23;;;;;;;7.22;3.22;;;14.80;99.90;;;;;;5084657;28;20043;-66
2021/06/21 01:49:51;;;;;;;5.72;2.70;;;14.80;99.90;;;;;;5089014;28;20067;-66
2021/06/21 01:52:19;;;;;;;8.88;3.10;;;14.80;99.90;;;;;;5084572;28;20067;-66
2021/06/21 01:54:54;;;;;;;8.10;3.53;;;14.80;99.90;;;;;;5089751;28;20039;-66
2021/06/21 01:57:24;;;;;;;10.98;3.67;;;14.80;99.90;;;;;;5087755;28;20485;-66
2021/06/21 01:59:51;;;;;;;7.47;3.33;;;14.70;99.90;;;;;;5087212;28;20033;-66
2021/06/21 02:02:20;;;;;;;7.00;3.58;;;14.70;99.90;;;;;;5089758;28;20063;-66
2021/06/21 02:04:48;;;;;;;7.53;4.35;;;14.70;99.90;;;;;;5086007;28;20040;-66
2021/06/21 02:07:17;;;;;;;13.60;4.10;;;14.70;99.90;;;;;;5086256;28;20077;-66
2021/06/21 02:09:45;;;;;;;12.68;4.22;;;14.70;99.90;;;;;;5086385;28;20040;-66
2021/06/21 02:12:12;;;;;;;5.57;3.80;;;14.60;99.90;;;;;;5086034;28;20040;-66
2021/06/21 02:14:38;;;;;;;10.23;4.20;;;14.70;99.90;;;;;;5089706;28;20039;-66
2021/06/21 02:17:05;;;;;;;5.55;3.35;;;14.70;99.90;;;;;;5085146;28;20077;-66
2021/06/21 02:19:32;;;;;;;11.98;4.90;;;14.60;99.90;;;;;;5080931;28;20055;-66
2021/06/21 02:21:59;;;;;;;5.57;3.38;;;14.60;99.90;;;;;;5085512;28;20141;-66
2021/06/21 02:24:26;;;;;;;5.70;3.55;;;14.60;99.90;;;;;;5087582;28;20039;-66
2021/06/21 02:26:53;;;;;;;9.05;4.50;;;14.50;99.90;;;;;;5085313;28;20043;-66
2021/06/21 02:29:23;;;;;;;6.88;4.78;;;14.50;99.90;;;;;;5083375;28;20499;-66
2021/06/21 02:31:50;;;;;;;6.40;4.03;;;14.40;99.90;;;;;;5080807;28;20035;-66
2021/06/21 02:34:17;;;;;;;9.27;3.88;;;14.40;99.90;;;;;;5084164;28;20040;-66
2021/06/21 02:36:43;;;;;;;7.97;3.90;;;14.30;99.90;;;;;;5082878;28;20390;-66
2021/06/21 02:39:10;;;;;;;6.93;3.78;;;14.30;99.90;;;;;;5084432;28;20177;-66
2021/06/21 02:41:37;;;;;;;6.50;3.10;;;14.30;99.90;;;;;;5086238;28;20040;-66
2021/06/21 02:44:04;;;;;;;6.38;2.97;;;14.30;99.90;;;;;;5085258;28;20478;-66
2021/06/21 02:46:30;;;;;;;7.88;2.90;;;14.30;99.90;;;;;;5085771;28;20039;-66
2021/06/21 02:48:57;;;;;;;5.18;2.53;;;14.20;99.90;;;;;;5082821;28;20041;-66
2021/06/21 02:51:52;;;;;;;7.70;2.72;;;14.10;99.90;;;;;;5080428;28;20035;-66
2021/06/21 02:55:06;;;;;;;5.50;2.45;;;14.20;99.90;;;;;;5081506;28;20446;-66
2021/06/21 02:57:52;;;;;;;2.83;2.53;;;14.20;99.90;;;;;;5080940;28;20047;-66
2021/06/21 03:00:19;;;;;;;6.00;2.33;;;14.10;99.90;;;;;;5081943;28;20033;-66
2021/06/21 03:02:45;;;;;;;5.00;2.40;;;14.10;99.90;;;;;;5084389;28;20402;-66
2021/06/21 03:05:15;;;;;;;7.05;2.53;;;14.20;99.90;;;;;;5077562;28;20072;-66
2021/06/21 03:07:42;;;;;;;4.93;2.33;;;14.20;99.90;;;;;;5076560;28;20040;-66
2021/06/21 03:10:09;;;;;;;5.60;2.38;;;14.10;99.90;;;;;;5081860;28;20054;-66
2021/06/21 03:12:35;;;;;;;6.78;2.83;;;14.10;99.90;;;;;;5081014;28;20043;-66
2021/06/21 03:15:01;;;;;;;5.40;2.40;;;14.10;99.90;;;;;;5084910;28;20040;-66
2021/06/21 03:17:28;;;;;;;6.90;2.70;;;14.10;99.90;;;;;;5086725;28;20490;-66
2021/06/21 03:19:54;;;;;;;8.50;2.75;;;14.10;99.90;;;;;;5082598;28;20119;-66
2021/06/21 03:22:23;;;;;;;7.70;2.92;;;14.10;99.90;;;;;;5080911;28;20039;-66
2021/06/21 03:24:55;;;;;;;6.43;3.75;;;14.10;99.90;;;;;;5085561;28;20044;-66
2021/06/21 03:27:32;;;;;;;6.38;3.05;;;14.00;99.90;;;;;;5078543;28;20036;-66
2021/06/21 03:29:58;;;;;;;7.22;3.30;;;14.10;99.90;;;;;;5080756;28;20405;-66
2021/06/21 03:32:29;;;;;;;7.25;3.00;;;14.00;99.90;;;;;;5084634;28;20036;-66
2021/06/21 03:34:57;;;;;;;8.63;3.70;;;14.10;99.90;;;;;;5084428;28;21806;-66
2021/06/21 03:37:23;;;;;;;9.80;3.75;;;14.00;99.90;;;;;;5082627;28;20047;-66
2021/06/21 03:39:48;;;;;;;11.10;4.38;;;14.00;99.90;;;;;;5079025;28;20047;-66
2021/06/21 03:42:15;;;;;;;8.57;4.22;;;14.00;99.90;;;;;;5088095;28;20050;-66
2021/06/21 03:44:40;;;;;;;9.93;4.18;;;14.00;99.90;;;;;;5084499;28;20048;-66
2021/06/21 03:47:08;;;;;;;9.60;4.00;;;14.10;99.90;;;;;;5087572;28;20133;-66
2021/06/21 03:49:34;;;;;;;9.10;4.45;;;14.10;99.90;;;;;;5083793;28;20043;-66
2021/06/21 03:52:00;;;;;;;13.18;4.15;;;14.10;99.90;;;;;;5087604;28;20028;-66
2021/06/21 03:54:25;;;;;;;11.32;4.63;;;14.10;99.90;;;;;;5085884;28;20409;-66
2021/06/21 03:56:51;;;;;;;9.70;4.55;;;14.00;99.90;;;;;;5085546;28;20044;-66
2021/06/21 03:59:19;;;;;;;9.82;4.50;;;14.00;99.90;;;;;;5081746;28;20031;-66
2021/06/21 04:01:45;;;;;;;11.45;5.75;;;14.00;99.90;;;;;;5084460;28;20118;-66
2021/06/21 04:04:11;;;;;;;10.55;5.78;;;14.00;99.90;;;;;;5087576;28;20117;-66
2021/06/21 04:06:36;;;;;;;9.68;4.95;;;14.00;99.90;;;;;;5084962;28;20478;-66
2021/06/21 04:09:03;;;;;;;14.63;5.75;;;14.00;99.90;;;;;;5085184;28;20028;-65
2021/06/21 04:11:29;;;;;;;9.13;5.50;;;14.00;99.90;;;;;;5086963;28;20097;-66
2021/06/21 04:13:58;;;;;;;9.63;4.85;;;14.00;99.90;;;;;;5085019;28;20044;-65
2021/06/21 04:16:24;;;;;;;10.02;5.70;;;14.00;99.90;;;;;;5086986;28;20043;-66
2021/06/21 04:18:50;;;;;;;12.93;5.05;;;14.00;99.90;;;;;;5084101;28;20584;-66
2021/06/21 04:21:16;;;;;;;11.95;5.30;;;14.00;99.90;;;;;;5089851;28;20540;-66
2021/06/21 04:23:42;;;;;;;9.45;4.70;;;14.00;99.90;;;;;;5089365;28;20072;-66
2021/06/21 04:26:10;;;;;;;7.93;3.72;;;14.00;99.90;;;;;;5085016;28;20041;-66
2021/06/21 04:28:42;;;;;;;7.78;4.22;;;14.10;99.90;;;;;;5081894;28;20505;-65
2021/06/21 04:31:09;;;;;;;8.85;4.63;;;14.00;99.90;;;;;;5085511;28;20032;-66
2021/06/21 04:33:35;;;;;;;7.00;3.83;;;14.10;99.90;;;;;;5085758;28;20058;-66
2021/06/21 04:36:00;;;;;;;7.97;3.97;;;14.00;99.90;;;;;;5084043;28;20039;-66
2021/06/21 04:38:28;;;;;;;8.90;4.32;;;14.00;99.90;;;;;;5079107;28;20036;-66
2021/06/21 04:40:54;;;;;;;7.10;3.70;;;14.00;99.90;;;;;;5088449;28;20424;-66
2021/06/21 04:43:20;;;;;;;9.27;3.55;;;14.00;99.90;;;;;;5083126;28;20742;-66
2021/06/21 04:45:46;;;;;;;7.45;3.92;;;14.00;99.90;;;;;;5082678;28;20085;-66
2021/06/21 04:48:12;;;;;;;6.97;3.35;;;14.00;99.90;;;;;;5081992;28;20394;-66
2021/06/21 04:50:39;;;;;;;6.75;4.00;;;14.00;99.90;;;;;;5081898;28;20058;-65
2021/06/21 04:53:05;;;;;;;10.40;4.15;;;14.00;99.90;;;;;;5082500;28;20074;-65
2021/06/21 04:55:32;;;;;;;6.30;3.38;;;14.00;99.90;;;;;;5081404;28;20036;-66
2021/06/21 04:57:57;;;;;;;7.80;4.22;;;14.10;99.90;;;;;;5081070;28;20067;-66
2021/06/21 05:00:27;;;;;;;10.60;3.67;;;14.10;99.90;;;;;;5081939;28;20401;-66
2021/06/21 05:02:53;;;;;;;4.82;2.88;;;14.00;99.90;;;;;;5082743;28;20032;-66
2021/06/21 05:05:20;;;;;;;9.55;4.20;;;14.00;99.90;;;;;;5084393;28;20039;-66
2021/06/21 05:07:47;;;;;;;8.02;4.13;;;14.00;99.90;;;;;;5081994;28;20044;-66
2021/06/21 05:10:13;;;;;;;9.45;4.03;;;14.00;99.90;;;;;;5087961;28;20036;-66
2021/06/21 05:12:40;;;;;;;9.35;4.03;;;14.00;99.90;;;;;;5082717;28;20128;-66
2021/06/21 05:15:06;;;;;;;7.03;4.50;;;14.00;99.90;;;;;;5095592;27;20139;-66
2021/06/21 05:17:33;;;;;;;7.78;3.88;;;14.00;99.90;;;;;;5083841;28;20033;-66
2021/06/21 05:19:58;;;;;;;5.15;3.92;;;14.00;99.90;;;;;;5085583;28;20031;-66
2021/06/21 05:22:24;;;;;;;11.70;4.20;;;14.00;99.90;;;;;;5082036;28;20039;-66
2021/06/21 05:24:51;;;;;;;7.95;4.40;;;14.00;99.90;;;;;;5085099;28;20040;-66
2021/06/21 05:27:16;;;;;;;5.22;3.40;;;14.00;99.90;;;;;;5081515;28;20066;-66
2021/06/21 05:29:42;;;;;;;6.97;4.05;;;14.00;99.90;;;;;;5081921;28;20051;-65
2021/06/21 05:32:08;;;;;;;8.70;4.13;;;14.00;99.90;;;;;;5082811;28;20032;-66
2021/06/21 05:34:34;;;;;;;6.80;3.95;;;14.00;99.90;;;;;;5086241;28;20039;-65
2021/06/21 05:37:00;;;;;;;8.23;4.15;;;14.00;99.90;;;;;;5081097;28;20036;-65
2021/06/21 05:39:26;;;;;;;6.95;3.67;;;14.00;99.90;;;;;;5079974;28;20043;-65
2021/06/21 05:41:52;;;;;;;6.75;3.42;;;14.00;99.90;;;;;;5082795;28;20042;-66
2021/06/21 05:44:18;;;;;;;7.20;3.75;;;14.20;99.90;;;;;;5083618;28;20044;-66
2021/06/21 05:46:45;;;;;;;6.93;3.40;;;14.10;99.90;;;;;;5084373;28;20055;-66
2021/06/21 05:49:11;;;;;;;7.57;2.88;;;14.20;99.90;;;;;;5082328;28;20036;-66
2021/06/21 05:51:37;;;;;;;8.80;2.97;;;14.20;99.90;;;;;;5081741;28;20489;-66
2021/06/21 05:54:02;;;;;;;5.88;2.88;;;14.20;99.90;;;;;;5082527;28;20044;-66
2021/06/21 05:56:28;;;;;;;9.02;3.40;;;14.20;99.90;;;;;;5081085;28;20031;-66
2021/06/21 05:58:54;;;;;;;7.55;3.33;;;14.20;99.90;;;;;;5082420;28;20106;-66
2021/06/21 06:01:19;;;;;;;11.23;3.88;;;14.20;99.90;;;;;;5081427;28;20037;-66
2021/06/21 06:03:45;;;;;;;5.82;2.90;;;14.20;99.90;;;;;;5083072;28;20471;-66
2021/06/21 06:06:11;;;;;;;9.23;2.85;;;14.20;99.90;;;;;;5080606;28;20628;-66
2021/06/21 06:08:36;;;;;;;9.60;3.20;;;14.30;99.90;;;;;;5081689;28;20115;-66
2021/06/21 06:11:02;;;;;;;9.88;3.55;;;14.30;99.90;;;;;;5083587;28;20047;-66
2021/06/21 06:13:28;;;;;;;6.63;2.72;;;14.30;99.90;;;;;;5081352;28;20875;-66
2021/06/21 06:15:53;;;;;;;8.25;3.13;;;14.30;99.90;;;;;;5083524;28;20098;-66
2021/06/21 06:18:20;;;;;;;8.40;3.47;;;14.30;99.90;;;;;;5081169;28;20047;-65
2021/06/21 06:20:46;;;;;;;10.05;3.28;;;14.30;99.90;;;;;;5075688;28;20036;-66
2021/06/21 06:23:12;;;;;;;5.43;2.95;;;14.20;99.90;;;;;;5072832;28;20055;-66
2021/06/21 06:25:38;;;;;;;7.15;3.72;;;14.20;99.90;;;;;;5071151;28;20047;-66
2021/06/21 06:28:06;;;;;;;9.88;3.13;;;14.30;99.90;;;;;;5069639;28;20469;-65
2021/06/21 06:30:32;;;;;;;8.23;3.60;;;14.30;99.90;;;;;;5073712;28;20047;-65
2021/06/21 06:32:57;;;;;;;7.95;2.95;;;14.20;99.90;;;;;;5072315;28;20044;-65
2021/06/21 06:35:23;;;;;;;6.80;3.25;;;14.30;99.90;;;;;;5070245;28;20055;-65
2021/06/21 06:37:49;;;;;;;8.85;3.83;;;14.30;99.90;;;;;;5070673;28;20078;-65
2021/06/21 06:40:17;;;;;;;6.03;3.25;;;14.30;99.90;;;;;;5069130;28;20504;-66
2021/06/21 06:42:44;;;;;;;6.32;3.42;;;14.30;99.90;;;;;;5068051;28;20036;-65
2021/06/21 06:45:10;;;;;;;8.25;3.53;;;14.30;99.90;;;;;;5066933;28;20039;-65
2021/06/21 06:47:36;;;;;;;10.93;3.25;;;14.30;99.90;;;;;;5070379;28;20312;-65
2021/06/21 06:50:03;;;;;;;6.38;3.13;;;14.40;99.90;;;;;;5069861;28;20032;-65
2021/06/21 06:52:28;;;;;;;7.75;3.30;;;14.40;99.90;;;;;;5072865;28;20067;-65
2021/06/21 06:57:33;;;;;;;7.70;3.97;;;14.30;99.90;;;;;;5071388;28;20934;-65
2021/06/21 06:59:58;;;;;;;6.28;3.05;;;14.30;99.90;;;;;;5072088;28;20040;-66
2021/06/21 07:02:24;;;;;;;9.07;3.35;;;14.30;99.90;;;;;;5072583;28;20510;-66
2021/06/21 07:04:50;;;;;;;6.80;3.30;;;14.20;99.90;;;;;;5072864;28;20040;-65
2021/06/21 07:07:18;;;;;;;6.63;3.28;;;14.20;99.90;;;;;;5071240;28;20498;-65
2021/06/21 07:09:44;;;;;;;6.75;2.80;;;14.30;99.90;;;;;;5074923;28;20036;-66
2021/06/21 07:12:10;;;;;;;10.73;3.50;;;14.20;99.90;;;;;;5071891;28;20495;-66
2021/06/21 07:14:37;;;;;;;7.95;2.95;;;14.20;99.90;;;;;;5070853;28;20044;-66
2021/06/21 07:17:03;;;;;;;10.50;3.40;;;14.10;99.90;;;;;;5076179;28;20097;-65
2021/06/21 07:19:29;;;;;;;9.93;3.13;;;14.20;99.90;;;;;;5076265;28;20044;-66
2021/06/21 07:21:55;;;;;;;10.15;3.05;;;14.20;99.90;;;;;;5075377;28;20072;-66
2021/06/21 07:24:21;;;;;;;7.85;3.10;;;14.20;99.90;;;;;;5075092;28;20028;-66
2021/06/21 07:26:48;;;;;;;9.50;3.38;;;14.20;99.90;;;;;;5075222;28;20044;-66
2021/06/21 07:29:15;;;;;;;8.32;3.28;;;14.30;99.90;;;;;;5078740;28;20058;-66
2021/06/21 07:31:40;;;;;;;8.32;3.15;;;14.30;99.90;;;;;;5076011;28;20174;-66
2021/06/21 07:34:06;;;;;;;10.07;2.75;;;14.20;99.90;;;;;;5076128;28;20047;-66
2021/06/21 07:36:33;;;;;;;7.05;3.80;;;14.20;99.90;;;;;;5074956;28;20036;-66
2021/06/21 07:39:00;;;;;;;8.93;3.63;;;14.30;99.90;;;;;;5072321;28;20040;-65
2021/06/21 07:41:26;;;;;;;9.80;4.10;;;14.30;99.90;;;;;;5074737;28;20044;-66
2021/06/21 07:43:52;;;;;;;7.18;3.83;;;14.20;99.90;;;;;;5072558;28;20113;-66
2021/06/21 07:46:18;;;;;;;9.50;3.30;;;14.20;99.90;;;;;;5072699;28;20584;-66
2021/06/21 07:48:45;;;;;;;8.38;3.20;;;14.30;99.90;;;;;;5075424;28;20117;-66
2021/06/21 07:51:16;;;;;;;5.55;3.80;;;14.20;99.90;;;;;;5074138;28;20097;-66
2021/06/21 07:53:43;;;;;;;6.47;3.03;;;14.20;99.90;;;;;;5074744;28;20050;-66
2021/06/21 07:56:10;;;;;;;8.90;3.50;;;14.20;99.90;;;;;;5075637;28;20111;-66
2021/06/21 07:58:40;;;;;;;12.43;2.75;;;14.20;99.90;;;;;;5071344;28;20075;-67
2021/06/21 08:01:06;;;;;;;6.30;2.72;;;14.20;99.90;;;;;;5073044;28;20040;-66
2021/06/21 08:03:33;;;;;;;6.72;2.92;;;14.10;99.90;;;;;;5075751;28;20482;-66
2021/06/21 08:06:03;;;;;;;8.80;3.13;;;14.10;99.90;;;;;;5074202;28;20115;-66
2021/06/21 08:08:30;;;;;;;6.75;2.15;;;14.10;99.90;;;;;;5076818;28;20058;-66
2021/06/21 08:10:57;;;;;;;10.65;2.47;;;14.10;99.90;;;;;;5075467;28;20044;-65
2021/06/21 08:13:23;;;;;;;6.18;2.60;;;14.20;99.90;;;;;;5072312;28;20075;-66
2021/06/21 08:15:50;;;;;;;7.53;2.78;;;14.10;99.90;;;;;;5072559;28;21276;-66
2021/06/21 08:18:15;;;;;;;6.72;2.33;;;14.10;99.90;;;;;;5074359;28;21052;-65
2021/06/21 08:20:44;;;;;;;5.65;2.78;;;14.10;99.90;;;;;;5072136;28;20063;-66
2021/06/21 08:23:11;;;;;;;6.32;2.80;;;14.10;99.90;;;;;;5073466;28;20044;-66
2021/06/21 08:25:37;;;;;;;6.68;2.60;;;14.00;99.90;;;;;;5073569;28;20051;-65
2021/06/21 08:28:05;;;;;;;6.18;2.25;;;14.00;99.90;;;;;;5088254;27;20462;-65
2021/06/21 08:30:31;;;;;;;11.23;2.67;;;14.00;99.90;;;;;;5073431;28;20040;-66
2021/06/21 08:32:57;;;;;;;7.30;2.50;;;14.00;99.90;;;;;;5072900;28;20048;-66
2021/06/21 08:35:23;;;;;;;4.95;2.83;;;14.00;99.90;;;;;;5073141;28;20046;-66
2021/06/21 08:37:49;;;;;;;7.60;3.22;;;14.00;99.90;;;;;;5072231;28;20032;-66
2021/06/21 08:40:15;;;;;;;7.43;2.20;;;14.00;99.90;;;;;;5075125;28;20047;-66
2021/06/21 08:42:42;;;;;;;9.48;2.80;;;14.00;99.90;;;;;;5071916;28;20044;-66
2021/06/21 08:45:09;;;;;;;8.00;2.72;;;14.00;99.90;;;;;;5072609;28;20509;-66
2021/06/21 08:47:36;;;;;;;8.05;2.42;;;14.00;99.90;;;;;;5073237;28;20032;-66
2021/06/21 08:50:06;;;;;;;7.05;2.58;;;14.10;99.90;;;;;;5073885;28;20131;-66
2021/06/21 08:52:32;;;;;;;10.93;2.95;;;14.00;99.90;;;;;;5072378;28;20050;-65
2021/06/21 08:55:04;;;;;;;12.05;2.90;;;14.00;99.90;;;;;;5073818;28;21952;-65
2021/06/21 08:57:35;;;;;;;9.13;2.75;;;14.00;99.90;;;;;;5070762;28;20055;-65
2021/06/21 09:00:04;;;;;;;7.18;2.70;;;14.10;99.90;;;;;;5075215;28;20082;-65
2021/06/21 09:02:30;;;;;;;9.38;2.65;;;14.00;99.90;;;;;;5075136;28;20040;-65
2021/06/21 09:04:56;;;;;;;9.55;3.15;;;14.10;99.90;;;;;;5074685;28;20051;-65
2021/06/21 09:07:27;;;;;;;8.88;2.60;;;14.10;99.90;;;;;;5071111;28;20060;-66
2021/06/21 09:09:56;;;;;;;5.45;2.00;;;14.10;99.90;;;;;;5074016;28;20511;-65
2021/06/21 09:12:27;;;;;;;6.60;2.40;;;14.10;99.90;;;;;;5076845;28;20239;-65
2021/06/21 09:14:57;;;;;;;7.72;2.40;;;14.10;99.90;;;;;;5070847;28;20051;-65
2021/06/21 09:17:25;;;;;;;7.90;3.03;;;14.10;99.90;;;;;;5073801;28;20028;-66
2021/06/21 09:19:56;;;;;;;6.68;1.80;;;14.10;99.90;;;;;;5072322;28;20080;-65
2021/06/21 09:22:26;;;;;;;5.68;2.63;;;14.10;99.90;;;;;;5072880;28;20075;-66
2021/06/21 09:24:52;;;;;;;12.15;3.95;;;14.10;99.90;;;;;;5073061;28;20125;-66
2021/06/21 09:27:19;;;;;;;9.45;2.70;;;14.10;99.90;;;;;;5071787;28;21794;-65
2021/06/21 09:29:46;;;;;;;7.90;2.90;;;14.20;99.90;;;;;;5072116;28;20110;-66
2021/06/21 09:32:11;;;;;;;9.60;2.70;;;14.20;99.90;;;;;;5072297;28;20032;-66
2021/06/21 09:34:43;;;;;;;7.72;2.60;;;14.20;99.90;;;;;;5071841;28;20051;-66
2021/06/21 09:37:17;;;;;;;8.65;2.90;;;14.20;99.90;;;;;;5072234;28;20092;-66
2021/06/21 09:39:45;;;;;;;5.13;2.92;;;14.30;99.90;;;;;;5071345;28;20094;-66
2021/06/21 09:42:17;;;;;;;5.43;1.75;;;14.30;99.90;;;;;;5071695;28;20036;-65
2021/06/21 09:44:49;;;;;;;7.97;2.28;;;14.40;99.90;;;;;;5069828;28;20113;-66
2021/06/21 09:47:20;;;;;;;4.90;1.55;;;14.40;99.90;;;;;;5071229;28;20048;-66
2021/06/21 09:50:07;;;;;;;6.40;1.48;;;14.40;99.90;;;;;;5072769;28;20092;-66
2021/06/21 09:52:35;;;;;;;5.18;1.52;;;14.40;99.90;;;;;;5071454;28;20040;-66
2021/06/21 09:55:09;;;;;;;5.20;1.63;;;14.30;99.90;;;;;;5084459;27;20389;-65
2021/06/21 09:57:36;;;;;;;6.20;1.65;;;14.40;99.90;;;;;;5071800;28;20086;-65
2021/06/21 10:00:08;;;;;;;4.40;1.15;;;14.50;99.90;;;;;;5070885;28;20058;-66
2021/06/21 10:02:34;;;;;;;4.43;1.15;;;14.40;99.90;;;;;;5073914;28;22284;-66
2021/06/21 10:05:00;;;;;;;5.20;1.38;;;14.40;99.90;;;;;;5071244;28;20115;-65
2021/06/21 10:07:29;;;;;;;7.10;1.73;;;14.30;99.90;;;;;;5071106;28;20078;-65
2021/06/21 10:10:00;;;;;;;5.07;1.40;;;14.40;99.90;;;;;;5070930;28;20043;-65
2021/06/21 10:12:26;;;;;;;4.68;1.42;;;14.40;99.90;;;;;;5069756;28;20097;-65
2021/06/21 10:14:52;;;;;;;3.55;1.38;;;14.40;99.90;;;;;;5071313;28;20046;-66
2021/06/21 10:17:20;;;;;;;9.05;1.75;;;14.40;99.90;;;;;;5070356;28;20028;-66
2021/06/21 10:19:46;;;;;;;4.35;1.13;;;14.40;99.90;;;;;;5071362;28;20040;-65
2021/06/21 10:22:12;;;;;;;5.13;0.82;;;14.40;99.90;;;;;;5071365;28;20575;-65
2021/06/21 10:24:38;;;;;;;7.68;1.83;;;14.30;99.90;;;;;;5069083;28;20036;-65
2021/06/21 10:27:06;;;;;;;6.88;1.20;;;14.30;99.90;;;;;;5102579;27;20044;-65
2021/06/21 10:29:34;;;;;;;4.53;1.50;;;14.30;99.90;;;;;;5068619;28;20106;-65
2021/06/21 10:32:04;;;;;;;6.47;1.52;;;14.30;99.90;;;;;;5069826;28;20497;-66
2021/06/21 10:34:30;;;;;;;3.45;0.90;;;14.30;99.90;;;;;;5068718;28;20126;-65
2021/06/21 10:36:57;;;;;;;4.70;1.05;;;14.20;99.90;;;;;;5070798;28;20037;-65
2021/06/21 10:39:26;;;;;;;4.97;1.30;;;14.10;99.90;;;;;;5067856;28;20036;-65
2021/06/21 10:42:05;;;;;;;5.75;1.27;;;14.10;99.90;;;;;;5068527;28;20043;-65
2021/06/21 10:44:39;;;;;;;4.28;1.45;;;14.10;99.90;;;;;;5067996;28;20041;-65
2021/06/21 10:47:32;;;;;;;3.58;1.20;;;14.10;99.90;;;;;;5070200;28;20041;-65
2021/06/21 10:50:11;;;;;;;4.55;1.20;;;14.10;99.90;;;;;;5066203;28;20150;-65
2021/06/21 10:52:45;;;;;;;8.85;1.10;;;14.10;99.90;;;;;;5086934;27;20171;-65
2021/06/21 10:55:23;;;;;;;4.95;1.33;;;14.20;99.90;;;;;;5071776;28;20172;-65
2021/06/21 10:58:04;;;;;;;3.22;1.05;;;14.10;99.90;;;;;;5072586;28;20093;-65
2021/06/21 11:00:43;;;;;;;5.57;1.20;;;14.10;99.90;;;;;;5072488;28;20131;-65
2021/06/21 11:03:25;;;;;;;3.33;1.17;;;14.20;99.90;;;;;;5075246;28;20414;-65
2021/06/21 11:05:51;;;;;;;3.60;0.88;;;14.30;99.90;;;;;;5072571;28;20066;-65
2021/06/21 11:08:18;;;;;;;3.05;1.08;;;14.30;99.90;;;;;;5074261;28;20047;-65
2021/06/21 11:10:46;;;;;;;3.10;1.25;;;14.50;99.90;;;;;;5074085;28;20499;-65
2021/06/21 11:13:32;;;;;;;5.15;1.02;;;14.50;99.90;;;;;;5082059;28;20050;-65
2021/06/21 11:16:19;;;;;;;4.25;1.70;;;14.50;99.90;;;;;;5073408;28;20482;-65
2021/06/21 11:18:50;;;;;;;4.55;1.00;;;14.60;99.90;;;;;;5087144;28;20482;-65
2021/06/21 11:21:19;;;;;;;1.70;1.10;;;14.70;99.90;;;;;;5085852;28;20043;-65
2021/06/21 11:23:47;;;;;;;3.95;1.13;;;14.70;99.90;;;;;;5084393;28;20612;-65
2021/06/21 11:26:14;;;;;;;3.65;1.00;;;14.70;99.90;;;;;;5086322;28;20028;-65
2021/06/21 11:28:43;;;;;;;6.25;1.00;;;14.60;99.90;;;;;;5086020;28;20044;-65
2021/06/21 11:31:21;;;;;;;3.75;1.20;;;14.60;99.90;;;;;;5074224;28;20121;-65
2021/06/21 11:34:02;;;;;;;5.00;1.63;;;14.60;99.90;;;;;;5073098;28;20059;-65
2021/06/21 11:36:47;;;;;;;3.97;1.00;;;14.50;99.90;;;;;;5071182;28;20461;-65
2021/06/21 11:39:30;;;;;;;3.88;1.00;;;14.40;99.90;;;;;;5070385;28;20901;-65
2021/06/21 11:42:05;;;;;;;5.72;1.23;;;14.30;99.90;;;;;;5076089;28;20394;-65
2021/06/21 11:44:37;;;;;;;4.35;1.45;;;14.30;99.90;;;;;;5071751;28;20044;-65
2021/06/21 11:47:16;;;;;;;7.85;1.42;;;14.40;99.90;;;;;;5074051;28;20057;-65
2021/06/21 11:49:44;;;;;;;3.72;0.90;;;14.40;99.90;;;;;;5073372;28;20079;-65
2021/06/21 11:52:21;;;;;;;6.30;1.00;;;14.40;99.90;;;;;;5072237;28;20123;-65
2021/06/21 11:54:49;;;;;;;8.23;1.45;;;14.40;99.90;;;;;;5071255;28;20032;-65
2021/06/21 11:57:17;;;;;;;5.13;1.17;;;14.40;99.90;;;;;;5073204;28;20043;-64
2021/06/21 11:59:48;;;;;;;3.78;1.02;;;14.40;99.90;;;;;;5072483;28;20028;-65
2021/06/21 12:02:20;;;;;;;5.15;1.02;;;14.40;99.90;;;;;;5073331;28;20039;-65
2021/06/21 12:04:47;;;;;;;1.70;0.88;;;14.40;99.90;;;;;;5073394;28;20158;-65
2021/06/21 12:07:35;;;;;;;6.63;1.10;;;14.50;99.90;;;;;;5071409;28;20560;-65
2021/06/21 12:10:10;;;;;;;3.78;1.05;;;14.50;99.90;;;;;;5071576;28;20044;-65
2021/06/21 12:12:38;;;;;;;6.93;1.52;;;14.60;99.90;;;;;;5072646;28;20047;-65
2021/06/21 12:15:06;;;;;;;5.30;1.67;;;14.60;99.90;;;;;;5073851;28;20052;-65
2021/06/21 12:17:34;;;;;;;2.78;0.95;;;14.60;99.90;;;;;;5073419;28;20113;-65
2021/06/21 12:20:08;;;;;;;4.22;1.00;;;14.60;99.90;;;;;;5074411;28;20530;-65
2021/06/21 12:22:35;;;;;;;3.15;0.65;;;14.50;99.90;;;;;;5070988;28;20151;-65
2021/06/21 12:25:02;;;;;;;2.70;0.70;;;14.50;99.90;;;;;;5071429;28;20509;-65
2021/06/21 12:27:30;;;;;;;3.92;1.00;;;14.50;99.90;;;;;;5069659;28;20053;-65
2021/06/21 12:29:56;;;;;;;3.50;0.90;;;14.50;99.90;;;;;;5072019;28;20053;-65
2021/06/21 12:32:28;;;;;;;3.70;0.98;;;14.60;99.90;;;;;;5071569;28;20043;-65
2021/06/21 12:34:55;;;;;;;5.15;1.08;;;14.60;99.90;;;;;;5072565;28;20043;-65
2021/06/21 12:37:36;;;;;;;6.07;1.23;;;14.70;99.90;;;;;;5070443;28;20489;-65
2021/06/21 12:40:20;;;;;;;6.82;1.58;;;14.70;99.90;;;;;;5070971;28;20078;-65
2021/06/21 12:42:47;;;;;;;4.20;0.88;;;14.70;99.90;;;;;;5072084;28;20032;-65
2021/06/21 12:45:21;;;;;;;5.43;1.10;;;14.70;99.90;;;;;;5079147;28;20127;-65
2021/06/21 12:47:53;;;;;;;3.35;1.10;;;14.70;99.90;;;;;;5083358;28;20040;-65
2021/06/21 12:50:23;;;;;;;6.53;1.58;;;14.70;99.90;;;;;;5083415;28;20047;-65
2021/06/21 12:52:51;;;;;;;3.45;1.30;;;14.70;99.90;;;;;;5082371;28;20047;-65
2021/06/21 12:55:23;;;;;;;4.35;1.05;;;14.80;99.90;;;;;;5083777;28;20040;-65
2021/06/21 12:58:07;;;;;;;7.18;1.48;;;14.80;99.90;;;;;;5085594;28;20101;-65